sensor_id;sensor_type;location;lat;lon;timestamp;P1;durP1;ratioP1;P2;durP2;ratioP2
22468;SDS011;11401;50.792;4.352;2023-04-19T00:01:41;19.88;;;14.57;;
22468;SDS011;11401;50.792;4.352;2023-04-19T00:04:08;16.73;;;14.73;;
22468;SDS011;11401;50.792;4.352;2023-04-19T00:06:36;16.88;;;13.77;;
22468;SDS011;11401;50.792;4.352;2023-04-19T00:09:03;17.95;;;14.68;;
22468;SDS011;11401;50.792;4.352;2023-04-19T00:11:30;14.80;;;12.52;;
22468;SDS011;11401;50.792;4.352;2023-04-19T00:13:58;16.63;;;14.18;;
22468;SDS011;11401;50.792;4.352;2023-04-19T00:16:25;14.60;;;13.02;;
22468;SDS011;11401;50.792;4.352;2023-04-19T00:18:52;16.27;;;13.93;;
22468;SDS011;11401;50.792;4.352;2023-04-19T00:21:19;16.52;;;14.73;;
22468;SDS011;11401;50.792;4.352;2023-04-19T00:23:46;17.23;;;14.85;;
22468;SDS011;11401;50.792;4.352;2023-04-19T00:26:13;18.33;;;15.98;;
22468;SDS011;11401;50.792;4.352;2023-04-19T00:28:48;20.95;;;16.02;;
22468;SDS011;11401;50.792;4.352;2023-04-19T00:31:14;15.73;;;13.88;;
22468;SDS011;11401;50.792;4.352;2023-04-19T00:33:42;14.38;;;12.90;;
22468;SDS011;11401;50.792;4.352;2023-04-19T00:36:09;16.98;;;14.20;;
22468;SDS011;11401;50.792;4.352;2023-04-19T00:38:37;19.30;;;15.75;;
22468;SDS011;11401;50.792;4.352;2023-04-19T00:41:04;19.40;;;15.80;;
22468;SDS011;11401;50.792;4.352;2023-04-19T00:43:31;18.10;;;16.10;;
22468;SDS011;11401;50.792;4.352;2023-04-19T00:45:59;14.75;;;12.73;;
22468;SDS011;11401;50.792;4.352;2023-04-19T00:48:26;20.27;;;15.32;;
22468;SDS011;11401;50.792;4.352;2023-04-19T00:50:54;20.15;;;15.05;;
22468;SDS011;11401;50.792;4.352;2023-04-19T00:53:21;18.20;;;16.20;;
22468;SDS011;11401;50.792;4.352;2023-04-19T00:55:48;17.50;;;15.30;;
22468;SDS011;11401;50.792;4.352;2023-04-19T00:58:18;19.58;;;15.57;;
22468;SDS011;11401;50.792;4.352;2023-04-19T01:00:46;16.52;;;14.73;;
22468;SDS011;11401;50.792;4.352;2023-04-19T01:03:13;15.25;;;13.65;;
22468;SDS011;11401;50.792;4.352;2023-04-19T01:05:42;16.55;;;13.40;;
22468;SDS011;11401;50.792;4.352;2023-04-19T01:08:11;16.63;;;12.77;;
22468;SDS011;11401;50.792;4.352;2023-04-19T01:10:38;15.45;;;12.85;;
22468;SDS011;11401;50.792;4.352;2023-04-19T01:13:07;17.42;;;13.82;;
22468;SDS011;11401;50.792;4.352;2023-04-19T01:15:36;17.55;;;14.98;;
22468;SDS011;11401;50.792;4.352;2023-04-19T01:18:03;16.25;;;13.35;;
22468;SDS011;11401;50.792;4.352;2023-04-19T01:20:30;15.68;;;13.98;;
22468;SDS011;11401;50.792;4.352;2023-04-19T01:22:57;17.45;;;14.38;;
22468;SDS011;11401;50.792;4.352;2023-04-19T01:25:26;16.45;;;13.93;;
22468;SDS011;11401;50.792;4.352;2023-04-19T01:27:53;17.08;;;13.57;;
22468;SDS011;11401;50.792;4.352;2023-04-19T01:30:22;19.42;;;14.32;;
22468;SDS011;11401;50.792;4.352;2023-04-19T01:32:49;18.95;;;14.40;;
22468;SDS011;11401;50.792;4.352;2023-04-19T01:35:16;16.50;;;14.13;;
22468;SDS011;11401;50.792;4.352;2023-04-19T01:37:43;16.67;;;14.57;;
22468;SDS011;11401;50.792;4.352;2023-04-19T01:40:10;16.33;;;14.60;;
22468;SDS011;11401;50.792;4.352;2023-04-19T01:42:37;17.10;;;14.38;;
22468;SDS011;11401;50.792;4.352;2023-04-19T01:45:05;19.83;;;15.07;;
22468;SDS011;11401;50.792;4.352;2023-04-19T01:47:32;17.42;;;14.95;;
22468;SDS011;11401;50.792;4.352;2023-04-19T01:50:00;16.27;;;14.10;;
22468;SDS011;11401;50.792;4.352;2023-04-19T01:52:28;17.17;;;15.27;;
22468;SDS011;11401;50.792;4.352;2023-04-19T01:54:54;16.70;;;14.65;;
22468;SDS011;11401;50.792;4.352;2023-04-19T01:57:21;15.85;;;14.15;;
22468;SDS011;11401;50.792;4.352;2023-04-19T01:59:48;20.00;;;14.77;;
22468;SDS011;11401;50.792;4.352;2023-04-19T02:02:16;16.35;;;14.15;;
22468;SDS011;11401;50.792;4.352;2023-04-19T02:04:44;17.80;;;15.13;;
22468;SDS011;11401;50.792;4.352;2023-04-19T02:07:11;16.17;;;14.10;;
22468;SDS011;11401;50.792;4.352;2023-04-19T02:09:38;19.60;;;14.90;;
22468;SDS011;11401;50.792;4.352;2023-04-19T02:12:05;19.40;;;15.95;;
22468;SDS011;11401;50.792;4.352;2023-04-19T02:14:32;18.05;;;14.82;;
22468;SDS011;11401;50.792;4.352;2023-04-19T02:17:00;17.88;;;14.43;;
22468;SDS011;11401;50.792;4.352;2023-04-19T02:19:27;18.17;;;14.70;;
22468;SDS011;11401;50.792;4.352;2023-04-19T02:21:54;17.23;;;14.88;;
22468;SDS011;11401;50.792;4.352;2023-04-19T02:24:23;18.35;;;14.70;;
22468;SDS011;11401;50.792;4.352;2023-04-19T02:26:50;17.17;;;14.70;;
22468;SDS011;11401;50.792;4.352;2023-04-19T02:29:17;17.00;;;14.75;;
22468;SDS011;11401;50.792;4.352;2023-04-19T02:31:44;17.33;;;14.18;;
22468;SDS011;11401;50.792;4.352;2023-04-19T02:34:12;15.73;;;14.02;;
22468;SDS011;11401;50.792;4.352;2023-04-19T02:36:39;17.13;;;14.82;;
22468;SDS011;11401;50.792;4.352;2023-04-19T02:39:06;18.08;;;14.23;;
22468;SDS011;11401;50.792;4.352;2023-04-19T02:41:36;17.48;;;14.10;;
22468;SDS011;11401;50.792;4.352;2023-04-19T02:44:03;21.30;;;14.38;;
22468;SDS011;11401;50.792;4.352;2023-04-19T02:46:30;17.73;;;15.25;;
22468;SDS011;11401;50.792;4.352;2023-04-19T02:48:59;17.48;;;14.63;;
22468;SDS011;11401;50.792;4.352;2023-04-19T02:51:26;15.20;;;13.60;;
22468;SDS011;11401;50.792;4.352;2023-04-19T02:53:53;16.15;;;13.82;;
22468;SDS011;11401;50.792;4.352;2023-04-19T02:56:20;17.33;;;14.20;;
22468;SDS011;11401;50.792;4.352;2023-04-19T02:58:47;14.77;;;12.95;;
22468;SDS011;11401;50.792;4.352;2023-04-19T03:01:14;16.88;;;13.50;;
22468;SDS011;11401;50.792;4.352;2023-04-19T03:03:41;16.23;;;14.25;;
22468;SDS011;11401;50.792;4.352;2023-04-19T03:06:09;14.98;;;12.00;;
22468;SDS011;11401;50.792;4.352;2023-04-19T03:08:45;19.63;;;14.65;;
22468;SDS011;11401;50.792;4.352;2023-04-19T03:11:15;19.38;;;13.48;;
22468;SDS011;11401;50.792;4.352;2023-04-19T03:13:42;17.00;;;13.50;;
22468;SDS011;11401;50.792;4.352;2023-04-19T03:16:11;16.95;;;14.13;;
22468;SDS011;11401;50.792;4.352;2023-04-19T03:18:39;18.23;;;14.40;;
22468;SDS011;11401;50.792;4.352;2023-04-19T03:21:06;17.17;;;13.73;;
22468;SDS011;11401;50.792;4.352;2023-04-19T03:23:44;14.45;;;12.73;;
22468;SDS011;11401;50.792;4.352;2023-04-19T03:26:12;17.13;;;13.93;;
22468;SDS011;11401;50.792;4.352;2023-04-19T03:28:43;16.38;;;13.40;;
22468;SDS011;11401;50.792;4.352;2023-04-19T03:31:25;15.50;;;13.38;;
22468;SDS011;11401;50.792;4.352;2023-04-19T03:33:53;13.70;;;12.15;;
22468;SDS011;11401;50.792;4.352;2023-04-19T03:36:25;15.27;;;13.60;;
22468;SDS011;11401;50.792;4.352;2023-04-19T03:38:52;14.93;;;13.32;;
22468;SDS011;11401;50.792;4.352;2023-04-19T03:41:24;15.63;;;13.63;;
22468;SDS011;11401;50.792;4.352;2023-04-19T03:44:08;14.43;;;12.95;;
22468;SDS011;11401;50.792;4.352;2023-04-19T03:46:36;14.90;;;12.02;;
22468;SDS011;11401;50.792;4.352;2023-04-19T03:49:04;15.40;;;13.40;;
22468;SDS011;11401;50.792;4.352;2023-04-19T03:51:31;14.63;;;12.95;;
22468;SDS011;11401;50.792;4.352;2023-04-19T03:53:59;15.68;;;13.15;;
22468;SDS011;11401;50.792;4.352;2023-04-19T03:56:27;15.57;;;12.50;;
22468;SDS011;11401;50.792;4.352;2023-04-19T03:58:54;14.82;;;12.85;;
22468;SDS011;11401;50.792;4.352;2023-04-19T04:01:22;12.68;;;11.38;;
22468;SDS011;11401;50.792;4.352;2023-04-19T04:03:51;16.63;;;12.10;;
22468;SDS011;11401;50.792;4.352;2023-04-19T04:06:19;15.70;;;12.38;;
22468;SDS011;11401;50.792;4.352;2023-04-19T04:08:46;14.57;;;12.60;;
22468;SDS011;11401;50.792;4.352;2023-04-19T04:11:13;16.90;;;13.93;;
22468;SDS011;11401;50.792;4.352;2023-04-19T04:13:41;16.48;;;14.00;;
22468;SDS011;11401;50.792;4.352;2023-04-19T04:16:19;15.07;;;13.48;;
22468;SDS011;11401;50.792;4.352;2023-04-19T04:18:47;15.38;;;13.60;;
22468;SDS011;11401;50.792;4.352;2023-04-19T04:21:14;14.60;;;13.05;;
22468;SDS011;11401;50.792;4.352;2023-04-19T04:23:44;14.85;;;12.93;;
22468;SDS011;11401;50.792;4.352;2023-04-19T04:26:20;14.57;;;12.90;;
22468;SDS011;11401;50.792;4.352;2023-04-19T04:29:02;15.45;;;12.90;;
22468;SDS011;11401;50.792;4.352;2023-04-19T04:31:30;15.05;;;13.30;;
22468;SDS011;11401;50.792;4.352;2023-04-19T04:33:57;15.75;;;13.02;;
22468;SDS011;11401;50.792;4.352;2023-04-19T04:36:24;14.35;;;12.02;;
22468;SDS011;11401;50.792;4.352;2023-04-19T04:38:52;15.27;;;13.15;;
22468;SDS011;11401;50.792;4.352;2023-04-19T04:41:20;15.95;;;13.60;;
22468;SDS011;11401;50.792;4.352;2023-04-19T04:43:48;14.38;;;11.82;;
22468;SDS011;11401;50.792;4.352;2023-04-19T04:46:36;18.08;;;14.48;;
22468;SDS011;11401;50.792;4.352;2023-04-19T04:49:04;16.02;;;13.23;;
22468;SDS011;11401;50.792;4.352;2023-04-19T04:51:31;16.90;;;13.63;;
22468;SDS011;11401;50.792;4.352;2023-04-19T04:53:59;15.65;;;13.43;;
22468;SDS011;11401;50.792;4.352;2023-04-19T04:56:27;16.23;;;13.15;;
22468;SDS011;11401;50.792;4.352;2023-04-19T04:58:54;16.52;;;13.88;;
22468;SDS011;11401;50.792;4.352;2023-04-19T05:01:28;16.33;;;13.80;;
22468;SDS011;11401;50.792;4.352;2023-04-19T05:03:56;13.63;;;12.20;;
22468;SDS011;11401;50.792;4.352;2023-04-19T05:06:25;16.48;;;13.48;;
22468;SDS011;11401;50.792;4.352;2023-04-19T05:08:52;14.63;;;12.57;;
22468;SDS011;11401;50.792;4.352;2023-04-19T05:11:28;16.55;;;14.20;;
22468;SDS011;11401;50.792;4.352;2023-04-19T05:13:55;14.45;;;12.30;;
22468;SDS011;11401;50.792;4.352;2023-04-19T05:16:22;14.10;;;12.38;;
22468;SDS011;11401;50.792;4.352;2023-04-19T05:18:51;18.08;;;13.88;;
22468;SDS011;11401;50.792;4.352;2023-04-19T05:21:20;28.80;;;15.13;;
22468;SDS011;11401;50.792;4.352;2023-04-19T05:23:47;21.30;;;16.02;;
22468;SDS011;11401;50.792;4.352;2023-04-19T05:26:14;22.33;;;16.73;;
22468;SDS011;11401;50.792;4.352;2023-04-19T05:28:43;22.52;;;16.80;;
22468;SDS011;11401;50.792;4.352;2023-04-19T05:31:19;17.58;;;14.13;;
22468;SDS011;11401;50.792;4.352;2023-04-19T05:34:09;22.27;;;15.85;;
22468;SDS011;11401;50.792;4.352;2023-04-19T05:36:36;20.75;;;15.40;;
22468;SDS011;11401;50.792;4.352;2023-04-19T05:39:03;26.73;;;16.25;;
22468;SDS011;11401;50.792;4.352;2023-04-19T05:41:31;25.60;;;14.77;;
22468;SDS011;11401;50.792;4.352;2023-04-19T05:43:58;18.17;;;14.80;;
22468;SDS011;11401;50.792;4.352;2023-04-19T05:46:25;23.23;;;15.20;;
22468;SDS011;11401;50.792;4.352;2023-04-19T05:48:53;18.52;;;14.65;;
22468;SDS011;11401;50.792;4.352;2023-04-19T05:51:39;23.45;;;17.45;;
22468;SDS011;11401;50.792;4.352;2023-04-19T05:54:11;22.48;;;16.40;;
22468;SDS011;11401;50.792;4.352;2023-04-19T05:56:43;22.42;;;16.08;;
22468;SDS011;11401;50.792;4.352;2023-04-19T05:59:10;22.00;;;15.82;;
22468;SDS011;11401;50.792;4.352;2023-04-19T06:01:39;18.13;;;14.10;;
22468;SDS011;11401;50.792;4.352;2023-04-19T06:04:06;19.77;;;14.70;;
22468;SDS011;11401;50.792;4.352;2023-04-19T06:06:34;20.88;;;16.17;;
22468;SDS011;11401;50.792;4.352;2023-04-19T06:09:04;18.67;;;15.10;;
22468;SDS011;11401;50.792;4.352;2023-04-19T06:11:32;24.17;;;14.68;;
22468;SDS011;11401;50.792;4.352;2023-04-19T06:14:12;20.05;;;14.95;;
22468;SDS011;11401;50.792;4.352;2023-04-19T06:16:40;19.45;;;13.95;;
22468;SDS011;11401;50.792;4.352;2023-04-19T06:19:08;19.50;;;14.45;;
22468;SDS011;11401;50.792;4.352;2023-04-19T06:21:34;21.63;;;15.82;;
22468;SDS011;11401;50.792;4.352;2023-04-19T06:24:02;19.17;;;14.75;;
22468;SDS011;11401;50.792;4.352;2023-04-19T06:26:29;18.23;;;14.02;;
22468;SDS011;11401;50.792;4.352;2023-04-19T06:28:56;17.92;;;14.30;;
22468;SDS011;11401;50.792;4.352;2023-04-19T06:31:23;20.73;;;15.50;;
22468;SDS011;11401;50.792;4.352;2023-04-19T06:33:50;23.95;;;14.32;;
22468;SDS011;11401;50.792;4.352;2023-04-19T06:36:17;17.10;;;13.13;;
22468;SDS011;11401;50.792;4.352;2023-04-19T06:38:45;18.90;;;14.10;;
22468;SDS011;11401;50.792;4.352;2023-04-19T06:41:12;22.95;;;14.85;;
22468;SDS011;11401;50.792;4.352;2023-04-19T06:43:39;17.52;;;13.00;;
22468;SDS011;11401;50.792;4.352;2023-04-19T06:46:08;15.25;;;13.25;;
22468;SDS011;11401;50.792;4.352;2023-04-19T06:48:35;22.13;;;16.15;;
22468;SDS011;11401;50.792;4.352;2023-04-19T06:51:02;21.77;;;14.93;;
22468;SDS011;11401;50.792;4.352;2023-04-19T06:53:29;20.35;;;15.07;;
22468;SDS011;11401;50.792;4.352;2023-04-19T06:55:57;22.17;;;14.95;;
22468;SDS011;11401;50.792;4.352;2023-04-19T06:58:29;16.38;;;13.45;;
22468;SDS011;11401;50.792;4.352;2023-04-19T07:01:02;15.85;;;12.52;;
22468;SDS011;11401;50.792;4.352;2023-04-19T07:03:30;16.55;;;13.50;;
22468;SDS011;11401;50.792;4.352;2023-04-19T07:05:57;17.60;;;14.40;;
22468;SDS011;11401;50.792;4.352;2023-04-19T07:08:25;16.75;;;13.38;;
22468;SDS011;11401;50.792;4.352;2023-04-19T07:11:08;16.05;;;13.25;;
22468;SDS011;11401;50.792;4.352;2023-04-19T07:13:35;17.98;;;12.75;;
22468;SDS011;11401;50.792;4.352;2023-04-19T07:16:05;17.48;;;13.38;;
22468;SDS011;11401;50.792;4.352;2023-04-19T07:18:33;16.63;;;12.30;;
22468;SDS011;11401;50.792;4.352;2023-04-19T07:21:00;15.88;;;12.18;;
22468;SDS011;11401;50.792;4.352;2023-04-19T07:23:27;15.32;;;12.90;;
22468;SDS011;11401;50.792;4.352;2023-04-19T07:25:56;17.63;;;12.40;;
22468;SDS011;11401;50.792;4.352;2023-04-19T07:28:23;20.70;;;13.90;;
22468;SDS011;11401;50.792;4.352;2023-04-19T07:30:50;16.80;;;12.30;;
22468;SDS011;11401;50.792;4.352;2023-04-19T07:33:17;13.00;;;10.55;;
22468;SDS011;11401;50.792;4.352;2023-04-19T07:35:44;15.38;;;12.15;;
22468;SDS011;11401;50.792;4.352;2023-04-19T07:38:11;14.77;;;12.38;;
22468;SDS011;11401;50.792;4.352;2023-04-19T07:40:38;14.93;;;11.88;;
22468;SDS011;11401;50.792;4.352;2023-04-19T07:43:05;15.23;;;11.82;;
22468;SDS011;11401;50.792;4.352;2023-04-19T07:45:32;13.30;;;10.75;;
22468;SDS011;11401;50.792;4.352;2023-04-19T07:47:59;16.42;;;11.30;;
22468;SDS011;11401;50.792;4.352;2023-04-19T07:50:26;15.80;;;12.75;;
22468;SDS011;11401;50.792;4.352;2023-04-19T07:52:53;16.15;;;12.35;;
22468;SDS011;11401;50.792;4.352;2023-04-19T07:55:22;19.52;;;12.68;;
22468;SDS011;11401;50.792;4.352;2023-04-19T07:57:49;14.63;;;10.77;;
22468;SDS011;11401;50.792;4.352;2023-04-19T08:00:16;16.00;;;12.30;;
22468;SDS011;11401;50.792;4.352;2023-04-19T08:02:44;15.02;;;10.82;;
22468;SDS011;11401;50.792;4.352;2023-04-19T08:05:13;13.45;;;11.80;;
22468;SDS011;11401;50.792;4.352;2023-04-19T08:07:43;18.08;;;12.18;;
22468;SDS011;11401;50.792;4.352;2023-04-19T08:10:11;12.85;;;11.50;;
22468;SDS011;11401;50.792;4.352;2023-04-19T08:12:40;13.40;;;10.60;;
22468;SDS011;11401;50.792;4.352;2023-04-19T08:15:27;14.90;;;10.90;;
22468;SDS011;11401;50.792;4.352;2023-04-19T08:18:14;12.63;;;9.80;;
22468;SDS011;11401;50.792;4.352;2023-04-19T08:20:41;12.82;;;10.43;;
22468;SDS011;11401;50.792;4.352;2023-04-19T08:23:08;13.32;;;11.20;;
22468;SDS011;11401;50.792;4.352;2023-04-19T08:25:49;15.90;;;11.48;;
22468;SDS011;11401;50.792;4.352;2023-04-19T08:28:16;14.13;;;9.77;;
22468;SDS011;11401;50.792;4.352;2023-04-19T08:30:44;13.82;;;10.70;;
22468;SDS011;11401;50.792;4.352;2023-04-19T08:33:11;15.18;;;10.55;;
22468;SDS011;11401;50.792;4.352;2023-04-19T08:35:38;12.70;;;9.80;;
22468;SDS011;11401;50.792;4.352;2023-04-19T08:38:07;13.88;;;9.48;;
22468;SDS011;11401;50.792;4.352;2023-04-19T08:40:34;14.90;;;9.98;;
22468;SDS011;11401;50.792;4.352;2023-04-19T08:43:04;14.63;;;10.07;;
22468;SDS011;11401;50.792;4.352;2023-04-19T08:45:32;12.10;;;10.13;;
22468;SDS011;11401;50.792;4.352;2023-04-19T08:48:01;14.63;;;10.30;;
22468;SDS011;11401;50.792;4.352;2023-04-19T08:50:29;11.30;;;9.70;;
22468;SDS011;11401;50.792;4.352;2023-04-19T08:53:14;12.60;;;10.00;;
22468;SDS011;11401;50.792;4.352;2023-04-19T08:55:50;10.25;;;9.10;;
22468;SDS011;11401;50.792;4.352;2023-04-19T08:58:43;11.05;;;9.60;;
22468;SDS011;11401;50.792;4.352;2023-04-19T09:01:17;14.05;;;9.98;;
22468;SDS011;11401;50.792;4.352;2023-04-19T09:04:01;14.65;;;9.68;;
22468;SDS011;11401;50.792;4.352;2023-04-19T09:06:53;14.25;;;9.73;;
22468;SDS011;11401;50.792;4.352;2023-04-19T09:09:22;10.02;;;8.23;;
22468;SDS011;11401;50.792;4.352;2023-04-19T09:11:53;10.13;;;8.68;;
22468;SDS011;11401;50.792;4.352;2023-04-19T09:14:20;10.63;;;7.95;;
22468;SDS011;11401;50.792;4.352;2023-04-19T09:16:48;11.13;;;8.60;;
22468;SDS011;11401;50.792;4.352;2023-04-19T09:19:17;14.73;;;9.40;;
22468;SDS011;11401;50.792;4.352;2023-04-19T09:21:50;10.32;;;7.97;;
22468;SDS011;11401;50.792;4.352;2023-04-19T09:24:36;12.93;;;8.15;;
22468;SDS011;11401;50.792;4.352;2023-04-19T09:27:31;10.20;;;8.20;;
22468;SDS011;11401;50.792;4.352;2023-04-19T09:30:00;12.80;;;8.50;;
22468;SDS011;11401;50.792;4.352;2023-04-19T09:32:28;12.13;;;8.82;;
22468;SDS011;11401;50.792;4.352;2023-04-19T09:35:14;13.27;;;8.68;;
22468;SDS011;11401;50.792;4.352;2023-04-19T09:37:42;9.95;;;7.68;;
22468;SDS011;11401;50.792;4.352;2023-04-19T09:40:31;10.30;;;7.78;;
22468;SDS011;11401;50.792;4.352;2023-04-19T09:42:59;16.83;;;7.78;;
22468;SDS011;11401;50.792;4.352;2023-04-19T09:45:40;9.52;;;8.30;;
22468;SDS011;11401;50.792;4.352;2023-04-19T09:48:12;9.77;;;8.23;;
22468;SDS011;11401;50.792;4.352;2023-04-19T09:53:32;9.93;;;8.63;;
22468;SDS011;11401;50.792;4.352;2023-04-19T09:56:00;9.40;;;7.45;;
22468;SDS011;11401;50.792;4.352;2023-04-19T09:58:30;10.30;;;8.40;;
22468;SDS011;11401;50.792;4.352;2023-04-19T10:01:00;12.70;;;8.60;;
22468;SDS011;11401;50.792;4.352;2023-04-19T10:03:41;9.85;;;8.05;;
22468;SDS011;11401;50.792;4.352;2023-04-19T10:06:13;15.25;;;9.35;;
22468;SDS011;11401;50.792;4.352;2023-04-19T10:09:02;10.68;;;8.88;;
22468;SDS011;11401;50.792;4.352;2023-04-19T10:11:31;12.32;;;9.32;;
22468;SDS011;11401;50.792;4.352;2023-04-19T10:14:09;10.40;;;8.60;;
22468;SDS011;11401;50.792;4.352;2023-04-19T10:16:37;9.68;;;8.55;;
22468;SDS011;11401;50.792;4.352;2023-04-19T10:19:07;9.07;;;8.18;;
22468;SDS011;11401;50.792;4.352;2023-04-19T10:21:36;12.95;;;9.35;;
22468;SDS011;11401;50.792;4.352;2023-04-19T10:24:05;12.43;;;8.45;;
22468;SDS011;11401;50.792;4.352;2023-04-19T10:32:27;12.45;;;8.45;;
22468;SDS011;11401;50.792;4.352;2023-04-19T10:35:17;7.82;;;7.07;;
22468;SDS011;11401;50.792;4.352;2023-04-19T10:38:02;10.48;;;7.55;;
22468;SDS011;11401;50.792;4.352;2023-04-19T10:43:22;9.32;;;7.72;;
22468;SDS011;11401;50.792;4.352;2023-04-19T10:45:50;10.80;;;7.40;;
22468;SDS011;11401;50.792;4.352;2023-04-19T10:50:59;7.15;;;6.45;;
22468;SDS011;11401;50.792;4.352;2023-04-19T10:53:46;8.90;;;6.50;;
22468;SDS011;11401;50.792;4.352;2023-04-19T11:01:37;7.70;;;6.60;;
22468;SDS011;11401;50.792;4.352;2023-04-19T11:09:25;19.83;;;7.28;;
22468;SDS011;11401;50.792;4.352;2023-04-19T11:11:58;7.00;;;6.05;;
22468;SDS011;11401;50.792;4.352;2023-04-19T11:17:24;10.90;;;6.93;;
22468;SDS011;11401;50.792;4.352;2023-04-19T11:22:45;9.68;;;6.30;;
22468;SDS011;11401;50.792;4.352;2023-04-19T11:25:13;8.20;;;6.68;;
22468;SDS011;11401;50.792;4.352;2023-04-19T11:27:46;19.05;;;7.30;;
22468;SDS011;11401;50.792;4.352;2023-04-19T11:30:18;19.10;;;6.57;;
22468;SDS011;11401;50.792;4.352;2023-04-19T11:32:52;7.78;;;6.68;;
22468;SDS011;11401;50.792;4.352;2023-04-19T11:35:20;9.82;;;6.50;;
22468;SDS011;11401;50.792;4.352;2023-04-19T11:37:49;9.23;;;6.40;;
22468;SDS011;11401;50.792;4.352;2023-04-19T11:40:17;7.90;;;5.60;;
22468;SDS011;11401;50.792;4.352;2023-04-19T11:42:45;7.97;;;6.85;;
22468;SDS011;11401;50.792;4.352;2023-04-19T11:45:31;10.27;;;6.82;;
22468;SDS011;11401;50.792;4.352;2023-04-19T11:48:05;8.90;;;6.82;;
22468;SDS011;11401;50.792;4.352;2023-04-19T11:50:43;8.88;;;6.55;;
22468;SDS011;11401;50.792;4.352;2023-04-19T11:53:18;18.95;;;7.35;;
22468;SDS011;11401;50.792;4.352;2023-04-19T11:55:50;7.05;;;6.22;;
22468;SDS011;11401;50.792;4.352;2023-04-19T12:00:55;9.38;;;6.70;;
22468;SDS011;11401;50.792;4.352;2023-04-19T12:03:30;6.57;;;5.93;;
22468;SDS011;11401;50.792;4.352;2023-04-19T12:05:58;9.20;;;6.07;;
22468;SDS011;11401;50.792;4.352;2023-04-19T12:08:33;9.40;;;6.80;;
22468;SDS011;11401;50.792;4.352;2023-04-19T12:11:02;6.07;;;5.47;;
22468;SDS011;11401;50.792;4.352;2023-04-19T12:13:30;7.53;;;6.53;;
22468;SDS011;11401;50.792;4.352;2023-04-19T12:15:58;7.97;;;6.47;;
22468;SDS011;11401;50.792;4.352;2023-04-19T12:18:25;9.43;;;6.80;;
22468;SDS011;11401;50.792;4.352;2023-04-19T12:20:52;11.88;;;7.47;;
22468;SDS011;11401;50.792;4.352;2023-04-19T12:23:20;10.18;;;7.80;;
22468;SDS011;11401;50.792;4.352;2023-04-19T12:25:47;8.05;;;7.00;;
22468;SDS011;11401;50.792;4.352;2023-04-19T12:28:15;6.85;;;6.20;;
22468;SDS011;11401;50.792;4.352;2023-04-19T12:30:42;7.25;;;5.70;;
22468;SDS011;11401;50.792;4.352;2023-04-19T12:33:09;5.30;;;4.80;;
22468;SDS011;11401;50.792;4.352;2023-04-19T12:35:37;10.55;;;6.85;;
22468;SDS011;11401;50.792;4.352;2023-04-19T12:38:04;10.35;;;6.95;;
22468;SDS011;11401;50.792;4.352;2023-04-19T12:40:32;6.95;;;6.25;;
22468;SDS011;11401;50.792;4.352;2023-04-19T12:43:00;6.50;;;5.35;;
22468;SDS011;11401;50.792;4.352;2023-04-19T12:45:27;8.27;;;5.90;;
22468;SDS011;11401;50.792;4.352;2023-04-19T12:47:54;11.15;;;6.88;;
22468;SDS011;11401;50.792;4.352;2023-04-19T12:50:22;9.68;;;6.00;;
22468;SDS011;11401;50.792;4.352;2023-04-19T12:52:49;6.72;;;4.78;;
22468;SDS011;11401;50.792;4.352;2023-04-19T12:55:19;4.78;;;4.30;;
22468;SDS011;11401;50.792;4.352;2023-04-19T12:57:46;5.70;;;5.13;;
22468;SDS011;11401;50.792;4.352;2023-04-19T13:00:13;8.00;;;5.75;;
22468;SDS011;11401;50.792;4.352;2023-04-19T13:02:41;8.52;;;5.20;;
22468;SDS011;11401;50.792;4.352;2023-04-19T13:05:09;10.02;;;5.68;;
22468;SDS011;11401;50.792;4.352;2023-04-19T13:07:38;6.25;;;5.20;;
22468;SDS011;11401;50.792;4.352;2023-04-19T13:10:05;4.45;;;4.13;;
22468;SDS011;11401;50.792;4.352;2023-04-19T13:12:33;5.20;;;4.70;;
22468;SDS011;11401;50.792;4.352;2023-04-19T13:15:01;7.15;;;4.40;;
22468;SDS011;11401;50.792;4.352;2023-04-19T13:17:30;8.88;;;5.93;;
22468;SDS011;11401;50.792;4.352;2023-04-19T13:19:57;4.80;;;4.30;;
22468;SDS011;11401;50.792;4.352;2023-04-19T13:22:24;7.00;;;4.78;;
22468;SDS011;11401;50.792;4.352;2023-04-19T13:24:52;6.28;;;5.50;;
22468;SDS011;11401;50.792;4.352;2023-04-19T13:27:19;11.45;;;5.10;;
22468;SDS011;11401;50.792;4.352;2023-04-19T13:29:46;9.02;;;4.85;;
22468;SDS011;11401;50.792;4.352;2023-04-19T13:32:13;5.38;;;4.20;;
22468;SDS011;11401;50.792;4.352;2023-04-19T13:34:40;16.30;;;4.97;;
22468;SDS011;11401;50.792;4.352;2023-04-19T13:37:07;6.50;;;4.68;;
22468;SDS011;11401;50.792;4.352;2023-04-19T13:39:35;5.60;;;4.40;;
22468;SDS011;11401;50.792;4.352;2023-04-19T13:42:02;5.05;;;4.03;;
22468;SDS011;11401;50.792;4.352;2023-04-19T13:44:29;8.27;;;4.10;;
22468;SDS011;11401;50.792;4.352;2023-04-19T13:46:57;4.55;;;4.10;;
22468;SDS011;11401;50.792;4.352;2023-04-19T13:49:24;4.28;;;3.88;;
22468;SDS011;11401;50.792;4.352;2023-04-19T13:51:51;4.47;;;3.83;;
22468;SDS011;11401;50.792;4.352;2023-04-19T13:54:18;4.55;;;3.95;;
22468;SDS011;11401;50.792;4.352;2023-04-19T13:56:46;7.43;;;3.97;;
22468;SDS011;11401;50.792;4.352;2023-04-19T13:59:17;11.98;;;4.80;;
22468;SDS011;11401;50.792;4.352;2023-04-19T14:01:44;5.20;;;4.70;;
22468;SDS011;11401;50.792;4.352;2023-04-19T14:04:11;11.93;;;4.70;;
22468;SDS011;11401;50.792;4.352;2023-04-19T14:06:39;6.63;;;5.32;;
22468;SDS011;11401;50.792;4.352;2023-04-19T14:09:06;9.20;;;5.57;;
22468;SDS011;11401;50.792;4.352;2023-04-19T14:11:34;5.90;;;4.65;;
22468;SDS011;11401;50.792;4.352;2023-04-19T14:14:03;4.45;;;3.80;;
22468;SDS011;11401;50.792;4.352;2023-04-19T14:16:29;5.85;;;4.07;;
22468;SDS011;11401;50.792;4.352;2023-04-19T14:18:56;4.20;;;3.90;;
22468;SDS011;11401;50.792;4.352;2023-04-19T14:21:24;5.97;;;3.95;;
22468;SDS011;11401;50.792;4.352;2023-04-19T14:23:54;5.13;;;3.67;;
22468;SDS011;11401;50.792;4.352;2023-04-19T14:26:21;5.20;;;3.00;;
22468;SDS011;11401;50.792;4.352;2023-04-19T14:28:50;4.63;;;3.05;;
22468;SDS011;11401;50.792;4.352;2023-04-19T14:31:17;4.78;;;3.05;;
22468;SDS011;11401;50.792;4.352;2023-04-19T14:33:44;3.70;;;2.80;;
22468;SDS011;11401;50.792;4.352;2023-04-19T14:36:11;4.47;;;2.78;;
22468;SDS011;11401;50.792;4.352;2023-04-19T14:38:38;2.65;;;2.45;;
22468;SDS011;11401;50.792;4.352;2023-04-19T14:41:05;2.50;;;2.30;;
22468;SDS011;11401;50.792;4.352;2023-04-19T14:43:33;3.88;;;2.88;;
22468;SDS011;11401;50.792;4.352;2023-04-19T14:46:00;3.22;;;2.60;;
22468;SDS011;11401;50.792;4.352;2023-04-19T14:48:27;3.90;;;2.35;;
22468;SDS011;11401;50.792;4.352;2023-04-19T14:50:54;3.35;;;2.53;;
22468;SDS011;11401;50.792;4.352;2023-04-19T14:53:21;5.40;;;2.65;;
22468;SDS011;11401;50.792;4.352;2023-04-19T14:55:48;7.97;;;2.55;;
22468;SDS011;11401;50.792;4.352;2023-04-19T14:58:15;4.70;;;2.90;;
22468;SDS011;11401;50.792;4.352;2023-04-19T15:00:43;3.70;;;2.78;;
22468;SDS011;11401;50.792;4.352;2023-04-19T15:03:10;2.65;;;2.40;;
22468;SDS011;11401;50.792;4.352;2023-04-19T15:05:37;4.95;;;2.47;;
22468;SDS011;11401;50.792;4.352;2023-04-19T15:08:05;2.50;;;2.30;;
22468;SDS011;11401;50.792;4.352;2023-04-19T15:10:40;3.13;;;2.67;;
22468;SDS011;11401;50.792;4.352;2023-04-19T15:13:07;2.85;;;2.65;;
22468;SDS011;11401;50.792;4.352;2023-04-19T15:15:35;6.47;;;3.05;;
22468;SDS011;11401;50.792;4.352;2023-04-19T15:18:02;3.15;;;2.75;;